Las Vegas, Nevada
Traffic Map
Current Weather Conditions
Las Vegas, Nevada
Broken Clouds
Broken Clouds
76°
Feels Like: 76°
Wind Chill: 76° Ceiling: 15000
Heat Index: 76° Visibility: 10mi
Dew Point: 18° Wind: 5mph
Humidity: 11% Direction: 230° (SW)
Pressure: 29.94in Gusts: 0mph
Raw Report DataKLAS 190356Z 23004KT 10SM SCT110 BKN150 BKN220 24/M08 A2994 RMK AO2 SLP118 T02441078
Traffic Incident Summary
Active as of:
Severity:
Category:
InformationThere was an issue retrieving the traffic information for this location. Please try a different location or try again shortly.
Advertisements